createdAt,value
2018-02-16T00:02:02.182Z,17.30
2018-02-16T00:04:28.755Z,18.67
2018-02-16T00:06:55.348Z,16.73
2018-02-16T00:09:21.928Z,17.42
2018-02-16T00:11:48.536Z,18.67
2018-02-16T00:14:15.119Z,17.87
2018-02-16T00:16:41.701Z,18.77
2018-02-16T00:19:08.605Z,14.87
2018-02-16T00:21:35.196Z,15.10
2018-02-16T00:24:01.776Z,15.00
2018-02-16T00:26:28.664Z,14.48
2018-02-16T00:28:55.251Z,15.88
2018-02-16T00:31:21.827Z,13.62
2018-02-16T00:33:48.434Z,13.18
2018-02-16T00:36:15.012Z,12.75
2018-02-16T00:38:41.605Z,12.27
2018-02-16T00:41:08.216Z,13.73
2018-02-16T00:43:34.799Z,13.07
2018-02-16T00:46:01.375Z,12.65
2018-02-16T00:48:27.964Z,12.40
2018-02-16T00:50:54.566Z,12.07
2018-02-16T00:53:21.151Z,11.30
2018-02-16T00:55:47.731Z,12.73
2018-02-16T00:58:14.319Z,12.02
2018-02-16T01:00:40.904Z,12.40
2018-02-16T01:03:07.483Z,11.35
2018-02-16T01:05:34.104Z,11.63
2018-02-16T01:08:00.682Z,10.15
2018-02-16T01:10:27.268Z,11.55
2018-02-16T01:12:53.848Z,9.65
2018-02-16T01:15:20.446Z,10.95
2018-02-16T01:17:47.028Z,10.25
2018-02-16T01:20:13.616Z,12.07
2018-02-16T01:22:40.219Z,10.52
2018-02-16T01:25:06.803Z,9.82
2018-02-16T01:27:33.383Z,10.13
2018-02-16T01:30:00.264Z,9.82
2018-02-16T01:32:26.834Z,9.98
2018-02-16T01:34:53.419Z,10.80
2018-02-16T01:37:20.276Z,11.02
2018-02-16T01:39:46.851Z,10.50
2018-02-16T01:42:13.434Z,10.82
2018-02-16T01:44:40.023Z,9.73
2018-02-16T01:47:06.609Z,12.98
2018-02-16T01:49:48.175Z,8.75
2018-02-16T01:52:14.756Z,10.00
2018-02-16T01:54:41.332Z,8.90
2018-02-16T01:57:07.919Z,9.30
2018-02-16T01:59:34.500Z,8.60
2018-02-16T02:02:01.079Z,11.52
2018-02-16T02:04:27.680Z,11.50
2018-02-16T02:06:54.260Z,8.70
2018-02-16T02:09:20.839Z,10.82
2018-02-16T02:11:47.444Z,11.10
2018-02-16T02:14:14.030Z,11.05
2018-02-16T02:16:40.619Z,10.50
2018-02-16T02:19:07.515Z,9.63
2018-02-16T02:21:34.090Z,9.65
2018-02-16T02:24:00.663Z,9.90
2018-02-16T02:26:27.271Z,9.98
2018-02-16T02:28:53.859Z,10.90
2018-02-16T02:31:20.439Z,10.70
2018-02-16T02:33:47.035Z,13.13
2018-02-16T02:36:13.615Z,11.07
2018-02-16T02:38:40.196Z,11.38
2018-02-16T02:41:06.795Z,11.48
2018-02-16T02:43:33.375Z,11.65
2018-02-16T02:45:59.955Z,12.80
2018-02-16T02:48:26.847Z,10.93
2018-02-16T02:50:53.431Z,10.20
2018-02-16T02:53:20.018Z,11.98
2018-02-16T02:55:46.617Z,12.60
2018-02-16T02:58:13.203Z,11.88
2018-02-16T03:00:39.786Z,12.32
2018-02-16T03:03:06.407Z,11.52
2018-02-16T03:05:32.991Z,11.65
2018-02-16T03:07:59.568Z,10.77
2018-02-16T03:10:26.167Z,12.57
2018-02-16T03:12:52.754Z,13.20
2018-02-16T03:15:19.337Z,10.55
2018-02-16T03:17:45.919Z,12.25
2018-02-16T03:20:12.498Z,12.55
2018-02-16T03:22:39.190Z,11.05
2018-02-16T03:25:05.766Z,10.80
2018-02-16T03:27:32.339Z,13.32
2018-02-16T03:29:59.022Z,11.25
2018-02-16T03:32:25.598Z,12.45
2018-02-16T03:34:52.174Z,11.73
2018-02-16T03:37:18.871Z,12.50
2018-02-16T03:39:45.460Z,11.27
2018-02-16T03:42:12.035Z,11.02
2018-02-16T03:44:38.624Z,10.60
2018-02-16T03:47:05.210Z,11.38
2018-02-16T03:49:31.797Z,12.95
2018-02-16T03:51:58.383Z,12.05
2018-02-16T03:54:24.967Z,10.20
2018-02-16T03:56:51.544Z,11.10
2018-02-16T03:59:18.400Z,10.75
2018-02-16T04:01:44.981Z,11.48
2018-02-16T04:04:11.566Z,11.25
2018-02-16T04:06:38.154Z,10.85
2018-02-16T04:09:04.743Z,11.80
2018-02-16T04:11:31.327Z,9.20
2018-02-16T04:13:58.011Z,10.90
2018-02-16T04:16:24.593Z,11.02
2018-02-16T04:18:51.184Z,10.32
2018-02-16T04:21:18.307Z,11.68
2018-02-16T04:23:44.889Z,10.50
2018-02-16T04:26:11.468Z,12.15
2018-02-16T04:28:38.072Z,10.30
2018-02-16T04:31:04.647Z,12.65
2018-02-16T04:33:31.242Z,11.52
2018-02-16T04:35:57.846Z,12.48
2018-02-16T04:38:24.430Z,10.55
2018-02-16T04:40:51.014Z,11.20
2018-02-16T04:43:17.599Z,10.52
2018-02-16T04:45:44.179Z,13.00
2018-02-16T04:48:10.763Z,11.23
2018-02-16T04:50:37.364Z,10.77
2018-02-16T04:53:03.943Z,11.88
2018-02-16T04:55:30.518Z,11.35
2018-02-16T04:57:57.118Z,11.63
2018-02-16T05:00:23.701Z,13.45
2018-02-16T05:02:50.282Z,11.57
2018-02-16T05:05:17.110Z,12.20
2018-02-16T05:07:43.694Z,12.95
2018-02-16T05:10:10.279Z,12.93
2018-02-16T05:12:36.883Z,11.75
2018-02-16T05:15:03.459Z,13.27
2018-02-16T05:17:30.044Z,11.73
2018-02-16T05:19:56.643Z,14.32
2018-02-16T05:22:23.226Z,12.73
2018-02-16T05:24:49.812Z,13.20
2018-02-16T05:27:16.398Z,12.68
2018-02-16T05:29:42.987Z,12.20
2018-02-16T05:32:09.906Z,13.15
2018-02-16T05:34:36.482Z,12.95
2018-02-16T05:37:03.066Z,13.43
2018-02-16T05:39:29.666Z,12.98
2018-02-16T05:41:56.251Z,12.75
2018-02-16T05:44:22.831Z,13.55
2018-02-16T05:46:49.432Z,12.98
2018-02-16T05:49:16.012Z,13.68
2018-02-16T05:51:42.596Z,14.18
2018-02-16T05:54:09.534Z,12.35
2018-02-16T05:56:36.118Z,13.20
2018-02-16T05:59:02.706Z,13.38
2018-02-16T06:01:29.639Z,14.60
2018-02-16T06:03:56.214Z,12.88
2018-02-16T06:06:22.803Z,13.65
2018-02-16T06:08:49.432Z,12.70
2018-02-16T06:11:15.980Z,14.75
2018-02-16T06:13:42.563Z,14.75
2018-02-16T06:16:09.154Z,14.25
2018-02-16T06:18:35.740Z,14.43
2018-02-16T06:21:02.327Z,12.80
2018-02-16T06:23:28.923Z,13.82
2018-02-16T06:25:55.575Z,14.68
2018-02-16T06:28:22.138Z,12.30
2018-02-16T06:30:48.743Z,14.05
2018-02-16T06:33:15.321Z,13.20
2018-02-16T06:35:41.905Z,13.45
2018-02-16T06:38:08.780Z,12.85
2018-02-16T06:40:35.354Z,13.82
2018-02-16T06:43:01.936Z,14.45
2018-02-16T06:45:28.591Z,14.20
2018-02-16T06:47:55.099Z,12.50
2018-02-16T06:50:22.059Z,12.85
2018-02-16T06:52:48.630Z,13.27
2018-02-16T06:55:15.211Z,13.13
2018-02-16T06:57:41.803Z,13.68
2018-02-16T07:00:08.383Z,11.95
2018-02-16T07:02:34.959Z,13.20
2018-02-16T07:05:01.551Z,11.93
2018-02-16T07:07:28.164Z,13.38
2018-02-16T07:09:54.720Z,12.57
2018-02-16T07:12:21.513Z,12.40
2018-02-16T07:14:48.096Z,11.68
2018-02-16T07:17:14.672Z,14.52
2018-02-16T07:19:41.278Z,12.93
2018-02-16T07:22:07.850Z,12.57
2018-02-16T07:24:34.440Z,13.35
2018-02-16T07:27:01.132Z,13.05
2018-02-16T07:29:27.707Z,11.93
2018-02-16T07:31:54.292Z,10.77
2018-02-16T07:34:20.980Z,13.30
2018-02-16T07:36:47.563Z,13.55
2018-02-16T07:39:14.148Z,12.37
2018-02-16T07:41:41.099Z,14.40
2018-02-16T07:44:07.682Z,11.57
2018-02-16T07:46:34.330Z,13.07
2018-02-16T07:49:00.906Z,12.48
2018-02-16T07:51:27.530Z,13.90
2018-02-16T07:53:54.396Z,13.35
2018-02-16T07:56:21.001Z,12.40
2018-02-16T07:58:47.591Z,13.73
2018-02-16T08:01:14.391Z,12.68
2018-02-16T08:03:40.976Z,13.18
2018-02-16T08:06:07.559Z,12.50
2018-02-16T08:08:34.199Z,17.65
2018-02-16T08:11:01.284Z,12.60
2018-02-16T08:13:27.851Z,12.35
2018-02-16T08:15:54.447Z,13.93
2018-02-16T08:18:21.034Z,9.68
2018-02-16T08:20:47.986Z,12.25
2018-02-16T08:23:14.578Z,12.93
2018-02-16T08:25:41.172Z,11.95
2018-02-16T08:28:07.791Z,14.80
2018-02-16T08:30:34.384Z,13.95
2018-02-16T08:33:00.970Z,12.15
2018-02-16T08:35:27.913Z,13.38
2018-02-16T08:37:54.532Z,12.25
2018-02-16T08:40:21.083Z,12.13
2018-02-16T08:42:47.702Z,12.85
2018-02-16T08:45:14.298Z,12.75
2018-02-16T08:47:40.883Z,11.60
2018-02-16T08:50:07.487Z,11.33
2018-02-16T08:52:34.060Z,9.80
2018-02-16T08:55:00.647Z,13.40
2018-02-16T08:57:27.243Z,10.48
2018-02-16T08:59:54.274Z,13.33
2018-02-16T09:02:20.846Z,12.60
2018-02-16T09:04:47.435Z,12.10
2018-02-16T09:07:14.067Z,18.90
2018-02-16T09:09:40.652Z,11.27
2018-02-16T09:12:07.231Z,11.80
2018-02-16T09:14:33.806Z,11.47
2018-02-16T09:17:00.492Z,10.87
2018-02-16T09:19:27.150Z,11.60
2018-02-16T09:21:53.717Z,11.00
2018-02-16T09:24:21.173Z,10.63
2018-02-16T09:26:47.747Z,10.27
2018-02-16T09:29:14.403Z,10.97
2018-02-16T09:31:44.526Z,9.93
2018-02-16T09:34:11.115Z,11.03
2018-02-16T09:36:37.701Z,11.23
2018-02-16T09:39:04.395Z,9.17
2018-02-16T09:41:30.979Z,10.20
2018-02-16T09:43:57.560Z,11.40
2018-02-16T09:46:24.147Z,10.67
2018-02-16T09:48:50.737Z,10.67
2018-02-16T09:51:17.310Z,10.10
2018-02-16T09:53:44.195Z,10.60
2018-02-16T09:56:13.594Z,10.07
2018-02-16T09:58:40.230Z,9.10
2018-02-16T10:01:06.903Z,9.87
2018-02-16T10:03:33.871Z,9.53
2018-02-16T10:06:00.427Z,10.30
2018-02-16T10:08:27.008Z,9.63
2018-02-16T10:10:53.587Z,10.13
2018-02-16T10:13:20.175Z,9.03
2018-02-16T10:15:46.758Z,9.43
2018-02-16T10:18:13.330Z,9.10
2018-02-16T10:20:40.021Z,10.47
2018-02-16T10:23:06.596Z,10.53
2018-02-16T10:25:33.186Z,8.70
2018-02-16T10:27:59.766Z,10.03
2018-02-16T10:30:26.348Z,9.50
2018-02-16T10:32:52.930Z,11.07
2018-02-16T10:35:19.567Z,10.03
2018-02-16T10:37:46.086Z,9.97
2018-02-16T10:40:12.655Z,9.53
2018-02-16T10:42:39.255Z,9.37
2018-02-16T10:45:05.833Z,8.70
2018-02-16T10:47:32.406Z,8.23
2018-02-16T10:49:58.984Z,8.60
2018-02-16T10:52:25.555Z,8.87
2018-02-16T10:54:52.396Z,9.23
2018-02-16T10:57:18.975Z,7.77
2018-02-16T10:59:45.548Z,7.90
2018-02-16T11:02:17.790Z,9.87
2018-02-16T11:04:50.045Z,9.70
2018-02-16T11:07:22.340Z,9.23
2018-02-16T11:09:48.916Z,9.30
2018-02-16T11:12:15.495Z,9.00
2018-02-16T11:14:42.086Z,9.20
2018-02-16T11:17:08.654Z,9.00
2018-02-16T11:19:35.222Z,9.27
2018-02-16T11:22:01.795Z,8.93
2018-02-16T11:24:28.367Z,8.60
2018-02-16T11:26:55.247Z,8.87
2018-02-16T11:29:21.824Z,7.90
2018-02-16T11:31:48.397Z,7.93
2018-02-16T11:34:15.367Z,7.67
2018-02-16T11:36:41.936Z,8.33
2018-02-16T11:39:08.509Z,8.37
2018-02-16T11:41:35.103Z,7.70
2018-02-16T11:44:01.683Z,8.00
2018-02-16T11:46:28.254Z,8.17
2018-02-16T11:48:54.865Z,6.97
2018-02-16T11:51:21.435Z,8.23
2018-02-16T11:53:48.006Z,7.10
2018-02-16T11:56:14.602Z,10.17
2018-02-16T11:58:41.179Z,8.00
2018-02-16T12:01:07.763Z,7.70
2018-02-16T12:03:34.343Z,7.27
2018-02-16T12:06:00.914Z,8.00
2018-02-16T12:08:27.491Z,7.23
2018-02-16T12:10:54.082Z,6.60
2018-02-16T12:13:20.654Z,7.87
2018-02-16T12:15:47.227Z,7.83
2018-02-16T12:18:13.814Z,6.90
2018-02-16T12:20:40.387Z,7.07
2018-02-16T12:23:06.964Z,6.63
2018-02-16T12:25:33.562Z,9.00
2018-02-16T12:28:00.143Z,7.27
2018-02-16T12:30:26.721Z,7.30
2018-02-16T12:32:53.316Z,8.47
2018-02-16T12:35:19.886Z,6.63
2018-02-16T12:37:46.458Z,8.43
2018-02-16T12:40:13.075Z,6.57
2018-02-16T12:42:39.648Z,7.70
2018-02-16T12:45:06.245Z,7.90
2018-02-16T12:47:32.812Z,7.73
2018-02-16T12:49:59.392Z,7.80
2018-02-16T12:52:25.975Z,8.30
2018-02-16T12:54:52.568Z,7.50
2018-02-16T12:57:19.138Z,7.00
2018-02-16T12:59:45.711Z,8.40
2018-02-16T13:02:12.615Z,7.67
2018-02-16T13:04:39.195Z,7.30
2018-02-16T13:07:05.778Z,6.40
2018-02-16T13:09:32.472Z,6.90
2018-02-16T13:11:59.051Z,8.60
2018-02-16T13:14:25.620Z,7.70
2018-02-16T13:16:52.480Z,6.50
2018-02-16T13:19:19.016Z,6.63
2018-02-16T13:21:45.582Z,6.47
2018-02-16T13:24:12.166Z,5.70
2018-02-16T13:26:38.749Z,6.43
2018-02-16T13:29:05.331Z,6.10
2018-02-16T13:31:31.907Z,7.90
2018-02-16T13:33:58.490Z,7.40
2018-02-16T13:36:25.178Z,5.60
2018-02-16T13:38:51.754Z,6.30
2018-02-16T13:41:18.335Z,5.53
2018-02-16T13:43:45.021Z,6.13
2018-02-16T13:46:11.595Z,5.43
2018-02-16T13:48:38.399Z,4.93
2018-02-16T13:51:04.984Z,6.47
2018-02-16T13:53:31.560Z,6.40
2018-02-16T13:55:58.135Z,6.10
2018-02-16T13:58:25.037Z,5.90
2018-02-16T14:00:51.612Z,6.30
2018-02-16T14:03:18.195Z,5.90
2018-02-16T14:05:44.798Z,6.20
2018-02-16T14:08:11.387Z,6.63
2018-02-16T14:10:38.172Z,5.63
2018-02-16T14:13:04.859Z,5.83
2018-02-16T14:15:31.446Z,5.70
2018-02-16T14:17:58.034Z,5.37
2018-02-16T14:20:24.619Z,4.80
2018-02-16T14:22:51.216Z,5.83
2018-02-16T14:25:17.795Z,6.17
2018-02-16T14:27:44.392Z,5.83
2018-02-16T14:30:10.998Z,5.00
2018-02-16T14:32:37.594Z,7.03
2018-02-16T14:35:04.476Z,6.37
2018-02-16T14:37:31.065Z,4.80
2018-02-16T14:39:57.649Z,5.30
2018-02-16T14:42:24.236Z,5.50
2018-02-16T14:44:50.814Z,5.33
2018-02-16T14:47:17.397Z,4.83
2018-02-16T14:49:43.977Z,4.40
2018-02-16T14:52:10.546Z,5.40
2018-02-16T14:54:37.354Z,4.50
2018-02-16T14:57:03.931Z,5.43
2018-02-16T14:59:30.510Z,4.67
2018-02-16T15:01:57.099Z,5.60
2018-02-16T15:04:23.720Z,5.20
2018-02-16T15:06:50.262Z,4.93
2018-02-16T15:09:16.895Z,4.77
2018-02-16T15:11:43.447Z,4.40
2018-02-16T15:14:10.025Z,5.90
2018-02-16T15:16:36.707Z,5.70
2018-02-16T15:19:03.611Z,5.10
2018-02-16T15:21:30.188Z,5.07
2018-02-16T15:23:56.777Z,4.67
2018-02-16T15:26:23.367Z,4.80
2018-02-16T15:28:49.962Z,4.63
2018-02-16T15:31:16.528Z,5.83
2018-02-16T15:33:43.108Z,5.70
2018-02-16T15:36:09.718Z,6.50
2018-02-16T15:38:36.302Z,4.83
2018-02-16T15:41:02.869Z,5.43
2018-02-16T15:43:29.476Z,5.03
2018-02-16T15:45:56.060Z,4.10
2018-02-16T15:48:22.639Z,5.30
2018-02-16T15:50:49.574Z,5.47
2018-02-16T15:53:16.147Z,5.50
2018-02-16T15:55:42.727Z,5.27
2018-02-16T15:58:09.328Z,5.57
2018-02-16T16:00:35.904Z,5.03
2018-02-16T16:03:02.500Z,5.83
2018-02-16T16:05:29.092Z,4.80
2018-02-16T16:07:55.669Z,4.73
2018-02-16T16:10:22.281Z,5.20
2018-02-16T16:12:48.834Z,4.90
2018-02-16T16:15:15.418Z,5.93
2018-02-16T16:17:41.997Z,5.17
2018-02-16T16:20:08.598Z,5.40
2018-02-16T16:22:35.170Z,5.80
2018-02-16T16:25:01.757Z,5.10
2018-02-16T16:27:28.363Z,5.30
2018-02-16T16:29:54.941Z,6.20
2018-02-16T16:32:21.519Z,5.40
2018-02-16T16:34:48.097Z,6.10
2018-02-16T16:37:14.988Z,4.57
2018-02-16T16:39:41.562Z,5.10
2018-02-16T16:42:08.148Z,5.83
2018-02-16T16:44:34.730Z,4.73
2018-02-16T16:47:01.315Z,6.40
2018-02-16T16:49:27.904Z,5.00
2018-02-16T16:51:54.779Z,4.13
2018-02-16T16:54:21.347Z,5.17
2018-02-16T16:56:48.751Z,5.23
2018-02-16T16:59:15.434Z,5.03
2018-02-16T17:01:42.017Z,5.77
2018-02-16T17:04:08.602Z,5.37
2018-02-16T17:06:35.210Z,4.90
2018-02-16T17:09:01.807Z,5.70
2018-02-16T17:11:28.384Z,4.53
2018-02-16T17:13:54.967Z,6.80
2018-02-16T17:16:21.546Z,5.53
2018-02-16T17:18:48.123Z,5.87
2018-02-16T17:21:14.724Z,5.17
2018-02-16T17:23:41.298Z,5.80
2018-02-16T17:26:07.866Z,5.30
2018-02-16T17:28:35.016Z,5.50
2018-02-16T17:31:01.626Z,7.20
2018-02-16T17:33:28.194Z,5.47
2018-02-16T17:35:54.892Z,4.60
2018-02-16T17:38:21.468Z,5.20
2018-02-16T17:40:48.043Z,5.57
2018-02-16T17:43:14.634Z,5.10
2018-02-16T17:45:41.210Z,4.63
2018-02-16T17:48:07.792Z,4.23
2018-02-16T17:50:34.447Z,4.63
2018-02-16T17:53:00.985Z,5.40
2018-02-16T17:55:27.569Z,5.37
2018-02-16T17:57:54.159Z,6.40
2018-02-16T18:00:20.738Z,4.83
2018-02-16T18:02:47.327Z,6.10
2018-02-16T18:05:13.923Z,6.70
2018-02-16T18:07:40.502Z,5.57
2018-02-16T18:10:07.077Z,5.40
2018-02-16T18:12:33.674Z,6.23
2018-02-16T18:15:00.255Z,5.50
2018-02-16T18:17:26.892Z,6.53
2018-02-16T18:19:53.443Z,5.70
2018-02-16T18:22:20.019Z,5.17
2018-02-16T18:24:46.602Z,6.27
2018-02-16T18:27:13.195Z,6.37
2018-02-16T18:29:39.775Z,5.73
2018-02-16T18:32:06.371Z,8.03
2018-02-16T18:34:32.950Z,8.47
2018-02-16T18:36:59.547Z,13.83
2018-02-16T18:39:26.131Z,7.30
2018-02-16T18:41:52.747Z,6.10
2018-02-16T18:44:19.323Z,6.60
2018-02-16T18:46:45.898Z,6.73
2018-02-16T18:49:12.588Z,6.47
2018-02-16T18:51:39.175Z,6.23
2018-02-16T18:54:05.754Z,5.27
2018-02-16T18:56:32.607Z,5.53
2018-02-16T18:58:59.186Z,5.40
2018-02-16T19:01:25.759Z,5.30
2018-02-16T19:03:52.368Z,6.00
2018-02-16T19:06:18.942Z,6.60
2018-02-16T19:08:45.521Z,6.00
2018-02-16T19:11:12.115Z,6.70
2018-02-16T19:13:38.690Z,6.07
2018-02-16T19:16:05.271Z,6.10
2018-02-16T19:18:31.872Z,6.90
2018-02-16T19:20:58.439Z,7.20
2018-02-16T19:23:25.038Z,6.23
2018-02-16T19:25:51.621Z,5.50
2018-02-16T19:28:18.233Z,5.70
2018-02-16T19:30:44.822Z,6.87
2018-02-16T19:33:11.448Z,6.30
2018-02-16T19:35:38.032Z,5.80
2018-02-16T19:38:05.020Z,5.90
2018-02-16T19:40:31.788Z,6.17
2018-02-16T19:42:58.556Z,6.10
2018-02-16T19:45:25.160Z,6.60
2018-02-16T19:47:51.728Z,6.53
2018-02-16T19:50:18.337Z,5.30
2018-02-16T19:52:45.231Z,6.70
2018-02-16T19:55:11.831Z,5.70
2018-02-16T19:57:38.421Z,6.13
2018-02-16T20:00:04.992Z,7.47
2018-02-16T20:02:32.009Z,6.40
2018-02-16T20:04:58.631Z,5.23
2018-02-16T20:07:25.210Z,6.63
2018-02-16T20:12:25.346Z,7.23
2018-02-16T20:14:51.919Z,6.13
2018-02-16T20:17:18.503Z,8.47
2018-02-16T20:19:45.105Z,7.20
2018-02-16T20:22:11.681Z,5.57
2018-02-16T20:24:38.276Z,5.47
2018-02-16T20:27:04.849Z,5.70
2018-02-16T20:29:31.439Z,6.60
2018-02-16T20:31:58.030Z,6.20
2018-02-16T20:34:24.719Z,6.83
2018-02-16T20:36:51.307Z,6.23
2018-02-16T20:39:17.950Z,6.80
2018-02-16T20:41:44.522Z,5.90
2018-02-16T20:44:11.107Z,7.03
2018-02-16T20:46:37.687Z,6.20
2018-02-16T20:49:04.271Z,6.13
2018-02-16T20:51:31.219Z,6.40
2018-02-16T20:53:57.807Z,7.57
2018-02-16T20:56:24.384Z,5.40
2018-02-16T20:58:50.986Z,6.77
2018-02-16T21:01:17.571Z,6.20
2018-02-16T21:03:44.163Z,21.00
2018-02-16T21:06:11.036Z,8.50
2018-02-16T21:08:37.609Z,9.07
2018-02-16T21:11:04.190Z,6.93
2018-02-16T21:13:30.775Z,5.70
2018-02-16T21:15:57.351Z,6.70
2018-02-16T21:18:23.931Z,6.50
2018-02-16T21:20:50.540Z,6.97
2018-02-16T21:23:17.112Z,5.60
2018-02-16T21:25:43.701Z,5.90
2018-02-16T21:28:10.283Z,6.90
2018-02-16T21:30:36.895Z,6.50
2018-02-16T21:33:03.466Z,6.53
2018-02-16T21:35:30.088Z,6.43
2018-02-16T21:37:56.676Z,6.67
2018-02-16T21:40:23.249Z,6.50
2018-02-16T21:42:49.825Z,7.00
2018-02-16T21:45:16.405Z,6.83
2018-02-16T21:47:43.095Z,6.00
2018-02-16T21:50:09.675Z,6.60
2018-02-16T21:52:36.251Z,6.43
2018-02-16T21:55:02.845Z,6.53
2018-02-16T21:57:29.451Z,6.40
2018-02-16T21:59:56.036Z,6.70
2018-02-16T22:02:22.619Z,10.47
2018-02-16T22:04:49.197Z,6.87
2018-02-16T22:07:16.003Z,6.90
2018-02-16T22:09:42.579Z,6.87
2018-02-16T22:12:09.154Z,7.90
2018-02-16T22:14:35.760Z,6.07
2018-02-16T22:17:02.340Z,7.33
2018-02-16T22:19:28.923Z,8.10
2018-02-16T22:21:55.531Z,5.70
2018-02-16T22:24:22.117Z,8.10
2018-02-16T22:26:48.692Z,7.53
2018-02-16T22:29:15.313Z,7.20
2018-02-16T22:31:41.868Z,7.27
2018-02-16T22:34:08.439Z,6.93
2018-02-16T22:36:35.019Z,6.97
2018-02-16T22:39:01.619Z,6.97
2018-02-16T22:41:28.199Z,6.80
2018-02-16T22:43:54.775Z,8.57
2018-02-16T22:46:21.375Z,8.57
2018-02-16T22:48:47.956Z,7.07
2018-02-16T22:51:14.626Z,7.22
2018-02-16T22:53:41.566Z,6.77
2018-02-16T22:56:08.148Z,7.73
2018-02-16T22:58:34.727Z,5.97
2018-02-16T23:01:01.341Z,8.00
2018-02-16T23:03:27.919Z,7.63
2018-02-16T23:05:54.502Z,6.18
2018-02-16T23:08:21.292Z,7.53
2018-02-16T23:10:47.869Z,7.20
2018-02-16T23:13:14.438Z,6.53
2018-02-16T23:15:41.300Z,7.53
2018-02-16T23:18:07.889Z,7.10
2018-02-16T23:20:34.467Z,6.33
2018-02-16T23:23:01.064Z,6.97
2018-02-16T23:25:27.638Z,6.78
2018-02-16T23:27:54.263Z,7.80
2018-02-16T23:30:20.878Z,7.10
2018-02-16T23:32:47.459Z,9.43
2018-02-16T23:35:14.044Z,7.40
2018-02-16T23:37:40.647Z,6.78
2018-02-16T23:40:07.238Z,6.70
2018-02-16T23:42:33.777Z,7.25
2018-02-16T23:45:00.772Z,8.02
2018-02-16T23:47:27.396Z,7.55
2018-02-16T23:49:53.989Z,7.00
2018-02-16T23:52:20.583Z,7.50
2018-02-16T23:54:47.168Z,7.10
2018-02-16T23:57:13.751Z,7.30
2018-02-16T23:59:40.362Z,7.37
